createdAt,value
2022-10-09T00:00:19.083Z,0
2022-10-09T00:01:19.086Z,0
2022-10-09T00:02:19.142Z,0
2022-10-09T00:03:19.085Z,0
2022-10-09T00:04:19.114Z,0
2022-10-09T00:05:19.144Z,0
2022-10-09T00:06:19.116Z,0
2022-10-09T00:07:19.106Z,0
2022-10-09T00:08:19.102Z,0
2022-10-09T00:09:19.092Z,0
2022-10-09T00:10:19.092Z,0
2022-10-09T00:11:19.093Z,0
2022-10-09T00:12:19.099Z,0
2022-10-09T00:13:19.103Z,0
2022-10-09T00:14:19.101Z,0
2022-10-09T00:15:19.093Z,0
2022-10-09T00:16:19.150Z,0
2022-10-09T00:17:19.093Z,0
2022-10-09T00:18:19.187Z,0
2022-10-09T00:19:19.085Z,0
2022-10-09T00:20:19.098Z,0
2022-10-09T00:21:19.095Z,0
2022-10-09T00:22:19.101Z,0
2022-10-09T00:23:19.105Z,0
2022-10-09T00:24:19.106Z,0
2022-10-09T00:25:19.101Z,0
2022-10-09T00:26:19.095Z,0
2022-10-09T00:27:19.081Z,0
2022-10-09T00:28:19.134Z,0
2022-10-09T00:29:19.333Z,0
2022-10-09T00:30:19.112Z,0
2022-10-09T00:31:19.286Z,0
2022-10-09T00:32:19.066Z,0
2022-10-09T00:33:19.229Z,0
2022-10-09T00:34:19.238Z,0
2022-10-09T00:35:19.073Z,0
2022-10-09T00:36:19.313Z,0
2022-10-09T00:37:19.072Z,0
2022-10-09T00:38:19.109Z,0
2022-10-09T00:39:19.110Z,0
2022-10-09T00:40:19.103Z,0
2022-10-09T00:41:19.093Z,0
2022-10-09T00:42:19.103Z,0
2022-10-09T00:43:19.095Z,0
2022-10-09T00:44:19.101Z,0
2022-10-09T00:45:19.091Z,0
2022-10-09T00:46:19.184Z,0
2022-10-09T00:47:19.091Z,0
2022-10-09T00:48:19.124Z,0
2022-10-09T00:49:19.108Z,0
2022-10-09T00:50:19.123Z,0
2022-10-09T00:51:19.117Z,0
2022-10-09T00:52:19.089Z,0
2022-10-09T00:53:19.095Z,0
2022-10-09T00:54:19.095Z,0
2022-10-09T00:55:19.080Z,0
2022-10-09T00:56:19.091Z,0
2022-10-09T00:57:19.089Z,0
2022-10-09T00:58:19.115Z,0
2022-10-09T00:59:19.095Z,0
2022-10-09T01:00:19.116Z,0
2022-10-09T01:01:19.149Z,0
2022-10-09T01:02:19.132Z,0
2022-10-09T01:03:19.088Z,0
2022-10-09T01:04:19.087Z,0
2022-10-09T01:05:19.099Z,0
2022-10-09T01:06:19.100Z,0
2022-10-09T01:07:19.099Z,0
2022-10-09T01:08:19.101Z,0
2022-10-09T01:09:19.087Z,0
2022-10-09T01:10:19.089Z,0
2022-10-09T01:11:19.112Z,0
2022-10-09T01:12:19.107Z,0
2022-10-09T01:13:19.103Z,0
2022-10-09T01:14:19.088Z,0
2022-10-09T01:15:19.097Z,0
2022-10-09T01:16:23.765Z,0
2022-10-09T01:17:19.080Z,0
2022-10-09T01:18:19.300Z,0
2022-10-09T01:19:19.498Z,0
2022-10-09T01:20:19.765Z,0
2022-10-09T01:21:19.104Z,0
2022-10-09T01:22:19.114Z,0
2022-10-09T01:23:19.103Z,0
2022-10-09T01:24:19.234Z,0
2022-10-09T01:25:19.101Z,0
2022-10-09T01:26:19.106Z,0
2022-10-09T01:27:19.093Z,0
2022-10-09T01:28:19.122Z,0
2022-10-09T01:29:19.095Z,0
2022-10-09T01:30:19.103Z,0
2022-10-09T01:31:19.191Z,0
2022-10-09T01:32:19.124Z,0
2022-10-09T01:33:19.112Z,0
2022-10-09T01:34:19.118Z,0
2022-10-09T01:35:19.093Z,0
2022-10-09T01:36:19.097Z,0
2022-10-09T01:37:19.088Z,0
2022-10-09T01:38:19.094Z,0
2022-10-09T01:39:19.117Z,0
2022-10-09T01:40:19.124Z,0
2022-10-09T01:41:19.100Z,0
2022-10-09T01:42:19.092Z,0
2022-10-09T01:43:19.079Z,0
2022-10-09T01:44:19.099Z,0
2022-10-09T01:45:19.319Z,0
2022-10-09T01:46:19.165Z,0
2022-10-09T01:47:19.179Z,0
2022-10-09T01:48:19.080Z,0
2022-10-09T01:49:19.288Z,0
2022-10-09T01:50:19.621Z,0
2022-10-09T01:51:19.742Z,0
2022-10-09T01:52:20.139Z,0
2022-10-09T01:53:19.095Z,0
2022-10-09T01:54:19.196Z,0
2022-10-09T01:55:19.533Z,0
2022-10-09T01:56:19.406Z,0
2022-10-09T01:57:19.299Z,0
2022-10-09T01:58:19.086Z,0
2022-10-09T01:59:19.119Z,0
2022-10-09T02:00:19.098Z,0
2022-10-09T02:01:19.201Z,0
2022-10-09T02:02:19.194Z,0
2022-10-09T02:03:19.187Z,0
2022-10-09T02:04:19.378Z,0
2022-10-09T02:05:19.160Z,0
2022-10-09T02:06:19.090Z,0
2022-10-09T02:07:19.079Z,0
2022-10-09T02:08:19.306Z,0
2022-10-09T02:09:19.476Z,0
2022-10-09T02:10:19.310Z,0
2022-10-09T02:11:19.475Z,0
2022-10-09T02:12:19.232Z,0
2022-10-09T02:13:19.557Z,0
2022-10-09T02:14:19.483Z,0
2022-10-09T02:15:19.087Z,0
2022-10-09T02:16:19.183Z,0
2022-10-09T02:17:19.205Z,0
2022-10-09T02:18:19.492Z,0
2022-10-09T02:19:19.098Z,0
2022-10-09T02:20:19.135Z,0
2022-10-09T02:21:19.106Z,0
2022-10-09T02:22:19.084Z,0
2022-10-09T02:23:19.104Z,0
2022-10-09T02:24:19.070Z,0
2022-10-09T02:25:19.221Z,0
2022-10-09T02:26:19.098Z,0
2022-10-09T02:27:19.115Z,0
2022-10-09T02:28:19.149Z,0
2022-10-09T02:29:19.491Z,0
2022-10-09T02:30:19.114Z,0
2022-10-09T02:31:19.162Z,0
2022-10-09T02:32:19.117Z,0
2022-10-09T02:33:19.099Z,0
2022-10-09T02:34:19.102Z,0
2022-10-09T02:35:19.115Z,0
2022-10-09T02:36:19.107Z,0
2022-10-09T02:37:19.116Z,0
2022-10-09T02:38:19.117Z,0
2022-10-09T02:39:19.122Z,0
2022-10-09T02:40:19.100Z,0
2022-10-09T02:41:19.098Z,0
2022-10-09T02:42:19.101Z,0
2022-10-09T02:43:19.098Z,0
2022-10-09T02:44:19.087Z,0
2022-10-09T02:45:19.088Z,0
2022-10-09T02:46:19.191Z,0
2022-10-09T02:47:19.102Z,0
2022-10-09T02:48:19.107Z,0
2022-10-09T02:49:19.114Z,0
2022-10-09T02:50:19.214Z,0
2022-10-09T02:51:19.094Z,0
2022-10-09T02:52:19.088Z,0
2022-10-09T02:53:19.110Z,0
2022-10-09T02:54:19.093Z,0
2022-10-09T02:55:19.088Z,0
2022-10-09T02:56:19.099Z,0
2022-10-09T02:57:19.089Z,0
2022-10-09T02:58:19.129Z,0
2022-10-09T02:59:19.108Z,0
2022-10-09T03:00:19.107Z,0
2022-10-09T03:01:19.332Z,0
2022-10-09T03:02:19.240Z,0
2022-10-09T03:03:19.128Z,0
2022-10-09T03:04:19.092Z,0
2022-10-09T03:05:19.091Z,0
2022-10-09T03:06:19.100Z,0
2022-10-09T03:07:19.097Z,0
2022-10-09T03:08:19.120Z,0
2022-10-09T03:09:19.106Z,0
2022-10-09T03:10:19.097Z,0
2022-10-09T03:11:19.101Z,0
2022-10-09T03:12:19.083Z,0
2022-10-09T03:13:19.088Z,0
2022-10-09T03:14:19.096Z,0
2022-10-09T03:15:19.084Z,0
2022-10-09T03:16:19.143Z,0
2022-10-09T03:17:19.094Z,0
2022-10-09T03:18:19.106Z,0
2022-10-09T03:19:19.094Z,0
2022-10-09T03:20:19.112Z,0
2022-10-09T03:21:19.118Z,0
2022-10-09T03:22:19.209Z,0
2022-10-09T03:23:19.096Z,0
2022-10-09T03:24:19.094Z,0
2022-10-09T03:25:19.105Z,0
2022-10-09T03:26:19.105Z,0
2022-10-09T03:27:19.088Z,0
2022-10-09T03:28:19.116Z,0
2022-10-09T03:29:19.101Z,0
2022-10-09T03:30:19.128Z,0
2022-10-09T03:31:39.547Z,0
2022-10-09T03:32:19.131Z,0
2022-10-09T03:33:19.209Z,0
2022-10-09T03:34:19.088Z,0
2022-10-09T03:35:19.096Z,0
2022-10-09T03:36:19.096Z,0
2022-10-09T03:37:19.099Z,0
2022-10-09T03:38:19.089Z,0
2022-10-09T03:39:19.073Z,0
2022-10-09T03:40:19.072Z,0
2022-10-09T03:41:19.075Z,0
2022-10-09T03:42:19.148Z,0
2022-10-09T03:43:19.096Z,0
2022-10-09T03:44:19.321Z,0
2022-10-09T03:45:19.069Z,0
2022-10-09T03:46:19.412Z,0
2022-10-09T03:47:19.144Z,0
2022-10-09T03:48:19.371Z,0
2022-10-09T03:49:19.097Z,0
2022-10-09T03:50:19.103Z,0
2022-10-09T03:51:19.091Z,0
2022-10-09T03:52:19.099Z,0
2022-10-09T03:53:19.087Z,0
2022-10-09T03:54:19.117Z,0
2022-10-09T03:55:19.205Z,0
2022-10-09T03:56:19.097Z,0
2022-10-09T03:57:19.085Z,0
2022-10-09T03:58:19.098Z,0
2022-10-09T03:59:19.095Z,0
2022-10-09T04:00:19.086Z,0
2022-10-09T04:01:19.165Z,0
2022-10-09T04:02:19.167Z,0
2022-10-09T04:03:19.079Z,0
2022-10-09T04:04:19.098Z,0
2022-10-09T04:05:19.102Z,0
2022-10-09T04:06:19.103Z,0
2022-10-09T04:07:19.135Z,0
2022-10-09T04:08:19.106Z,0
2022-10-09T04:09:19.085Z,0
2022-10-09T04:10:19.088Z,0
2022-10-09T04:11:19.091Z,0
2022-10-09T04:12:19.104Z,0
2022-10-09T04:13:19.100Z,0
2022-10-09T04:14:19.090Z,0
2022-10-09T04:15:19.096Z,0
2022-10-09T04:16:19.129Z,0
2022-10-09T04:17:19.096Z,0
2022-10-09T04:18:19.094Z,0
2022-10-09T04:19:19.089Z,0
2022-10-09T04:20:19.099Z,0
2022-10-09T04:21:19.083Z,0
2022-10-09T04:22:19.088Z,0
2022-10-09T04:23:19.105Z,0
2022-10-09T04:24:19.102Z,0
2022-10-09T04:25:19.109Z,0
2022-10-09T04:26:19.090Z,0
2022-10-09T04:27:19.105Z,0
2022-10-09T04:28:19.129Z,0
2022-10-09T04:29:19.069Z,0
2022-10-09T04:30:19.089Z,0
2022-10-09T04:31:19.251Z,0
2022-10-09T04:32:19.072Z,0
2022-10-09T04:33:19.178Z,0
2022-10-09T04:34:19.558Z,0
2022-10-09T04:35:19.544Z,0
2022-10-09T04:36:19.116Z,0
2022-10-09T04:37:19.096Z,0
2022-10-09T04:38:19.125Z,0
2022-10-09T04:39:19.094Z,0
2022-10-09T04:40:19.088Z,0
2022-10-09T04:41:19.086Z,0
2022-10-09T04:42:19.103Z,0
2022-10-09T04:43:19.094Z,0
2022-10-09T04:44:19.124Z,0
2022-10-09T04:45:19.096Z,0
2022-10-09T04:46:19.114Z,0
2022-10-09T04:47:19.093Z,0
2022-10-09T04:48:19.091Z,0
2022-10-09T04:49:19.103Z,0
2022-10-09T04:50:19.127Z,0
2022-10-09T04:51:19.082Z,0
2022-10-09T04:52:19.082Z,0
2022-10-09T04:53:19.181Z,0
2022-10-09T04:54:19.098Z,0
2022-10-09T04:55:19.248Z,0
2022-10-09T04:56:19.141Z,0
2022-10-09T04:57:19.093Z,0
2022-10-09T04:58:19.194Z,0
2022-10-09T04:59:19.101Z,0
2022-10-09T05:00:19.176Z,0
2022-10-09T05:01:19.807Z,0.23
2022-10-09T05:02:19.255Z,0.23
2022-10-09T05:03:19.491Z,0.23
2022-10-09T05:04:19.228Z,0.23
2022-10-09T05:05:19.420Z,0.46
2022-10-09T05:06:19.093Z,0.46
2022-10-09T05:07:19.105Z,0.69
2022-10-09T05:08:19.106Z,0.69
2022-10-09T05:09:19.090Z,0.92
2022-10-09T05:10:19.070Z,1.15
2022-10-09T05:11:19.174Z,1.61
2022-10-09T05:12:19.146Z,1.84
2022-10-09T05:13:19.075Z,2.3
2022-10-09T05:14:19.070Z,2.76
2022-10-09T05:15:19.116Z,3.45
2022-10-09T05:16:19.571Z,4.14
2022-10-09T05:17:22.918Z,5.06
2022-10-09T05:18:19.256Z,6.21
2022-10-09T05:19:19.227Z,7.59
2022-10-09T05:20:19.538Z,9.2
2022-10-09T05:21:19.068Z,10.83
2022-10-09T05:22:19.424Z,12.5
2022-10-09T05:23:19.811Z,15.83
2022-10-09T05:24:19.303Z,18.33
2022-10-09T05:25:19.571Z,22.5
2022-10-09T05:26:19.104Z,26.67
2022-10-09T05:27:19.077Z,30.83
2022-10-09T05:28:19.362Z,36.67
2022-10-09T05:29:19.141Z,42.5
2022-10-09T05:30:19.071Z,49.17
2022-10-09T05:31:19.278Z,55.83
2022-10-09T05:32:19.095Z,64.17
2022-10-09T05:33:19.181Z,73.33
2022-10-09T05:34:19.676Z,83.33
2022-10-09T05:35:19.103Z,94.17
2022-10-09T05:36:19.098Z,106.67
2022-10-09T05:37:19.076Z,118.33
2022-10-09T05:38:19.214Z,131.67
2022-10-09T05:39:19.083Z,146.67
2022-10-09T05:40:19.202Z,160.83
2022-10-09T05:41:19.103Z,176.67
2022-10-09T05:42:19.105Z,193.33
2022-10-09T05:43:19.401Z,210.83
2022-10-09T05:44:19.113Z,227.5
2022-10-09T05:45:19.105Z,245.83
2022-10-09T05:46:19.143Z,265.83
2022-10-09T05:47:19.098Z,286.67
2022-10-09T05:48:19.097Z,308.33
2022-10-09T05:49:19.095Z,330.83
2022-10-09T05:50:19.098Z,355.83
2022-10-09T05:51:19.095Z,379.17
2022-10-09T05:52:19.094Z,404.17
2022-10-09T05:53:19.109Z,427.5
2022-10-09T05:54:19.097Z,453.33
2022-10-09T05:55:19.114Z,479.17
2022-10-09T05:56:19.108Z,504.17
2022-10-09T05:57:19.091Z,530
2022-10-09T05:58:19.102Z,555.83
2022-10-09T05:59:19.103Z,581.67
2022-10-09T06:00:19.102Z,607.5
2022-10-09T06:01:19.194Z,635
2022-10-09T06:02:19.154Z,660.83
2022-10-09T06:03:19.125Z,690
2022-10-09T06:04:19.100Z,718.33
2022-10-09T06:05:19.109Z,747.5
2022-10-09T06:06:19.201Z,780
2022-10-09T06:07:19.098Z,813.33
2022-10-09T06:08:19.093Z,850.83
2022-10-09T06:09:19.080Z,889.17
2022-10-09T06:10:19.096Z,926.67
2022-10-09T06:11:19.087Z,966.67
2022-10-09T06:12:19.090Z,1000.83
2022-10-09T06:13:19.112Z,1029.17
2022-10-09T06:14:19.098Z,1058.33
2022-10-09T06:15:19.095Z,1085.83
2022-10-09T06:16:19.161Z,1116.67
2022-10-09T06:17:19.205Z,1143.33
2022-10-09T06:18:19.096Z,1171.67
2022-10-09T06:19:19.092Z,1200
2022-10-09T06:20:19.094Z,1230.83
2022-10-09T06:21:19.102Z,1257.5
2022-10-09T06:22:19.091Z,1284.17
2022-10-09T06:23:19.094Z,1310
2022-10-09T06:24:19.092Z,1336.67
2022-10-09T06:25:19.118Z,1366.67
2022-10-09T06:26:19.097Z,1396.67
2022-10-09T06:27:19.115Z,1421.67
2022-10-09T06:28:19.278Z,1445.83
2022-10-09T06:29:19.092Z,1470
2022-10-09T06:30:19.096Z,1493.33
2022-10-09T06:31:19.221Z,1523.33
2022-10-09T06:32:19.098Z,1549.17
2022-10-09T06:33:19.132Z,1574.17
2022-10-09T06:34:19.103Z,1601.67
2022-10-09T06:35:19.094Z,1650.83
2022-10-09T06:36:19.109Z,1676.67
2022-10-09T06:37:19.125Z,1692.5
2022-10-09T06:38:19.140Z,1703.33
2022-10-09T06:39:19.183Z,1701.67
2022-10-09T06:40:19.096Z,1705
2022-10-09T06:41:19.090Z,1708.33
2022-10-09T06:42:19.101Z,1755.83
2022-10-09T06:43:19.110Z,1785.83
2022-10-09T06:44:19.096Z,1795
2022-10-09T06:45:19.108Z,1797.5
2022-10-09T06:46:19.148Z,1801.67
2022-10-09T06:47:19.111Z,1808.33
2022-10-09T06:48:19.133Z,1845
2022-10-09T06:49:19.106Z,1858.33
2022-10-09T06:50:19.099Z,1854.17
2022-10-09T06:51:19.093Z,1794.17
2022-10-09T06:52:19.099Z,1760.83
2022-10-09T06:53:19.090Z,1775
2022-10-09T06:54:19.176Z,1777.5
2022-10-09T06:55:19.079Z,1772.5
2022-10-09T06:56:19.097Z,1813.33
2022-10-09T06:57:19.156Z,1850.83
2022-10-09T06:58:19.089Z,1875.83
2022-10-09T06:59:19.245Z,1920
2022-10-09T07:00:19.557Z,1960.83
2022-10-09T07:01:19.828Z,1965.83
2022-10-09T07:02:19.419Z,1944.17
2022-10-09T07:03:19.100Z,1928.33
2022-10-09T07:04:19.118Z,1984.17
2022-10-09T07:05:19.103Z,2047.5
2022-10-09T07:06:19.097Z,2072.5
2022-10-09T07:07:19.127Z,2089.17
2022-10-09T07:08:19.095Z,2112.5
2022-10-09T07:09:19.105Z,2112.5
2022-10-09T07:10:22.889Z,2106.67
2022-10-09T07:11:19.110Z,2090
2022-10-09T07:12:19.211Z,2074.17
2022-10-09T07:13:19.095Z,2107.5
2022-10-09T07:14:19.136Z,2127.5
2022-10-09T07:15:19.116Z,2166.67
2022-10-09T07:16:19.161Z,2202.5
2022-10-09T07:17:19.098Z,2215.83
2022-10-09T07:18:19.087Z,2212.5
2022-10-09T07:19:19.099Z,2218.33
2022-10-09T07:20:19.101Z,2238.33
2022-10-09T07:21:19.109Z,2233.33
2022-10-09T07:22:20.787Z,2215.83
2022-10-09T07:23:19.191Z,2291.67
2022-10-09T07:24:19.096Z,2400
2022-10-09T07:25:19.080Z,2434.17
2022-10-09T07:26:19.118Z,2443.33
2022-10-09T07:27:19.122Z,2471.67
2022-10-09T07:28:19.142Z,2504.17
2022-10-09T07:29:19.104Z,2492.5
2022-10-09T07:30:19.103Z,2515
2022-10-09T07:31:19.185Z,2565.83
2022-10-09T07:32:19.102Z,2560.83
2022-10-09T07:33:19.113Z,2541.67
2022-10-09T07:34:19.110Z,2526.67
2022-10-09T07:35:19.194Z,2563.33
2022-10-09T07:36:19.103Z,2595
2022-10-09T07:37:19.104Z,2619.17
2022-10-09T07:38:19.096Z,2650.83
2022-10-09T07:39:19.101Z,2660
2022-10-09T07:40:19.125Z,2689.17
2022-10-09T07:41:19.094Z,2734.17
2022-10-09T07:42:19.097Z,2753.33
2022-10-09T07:43:19.092Z,2782.5
2022-10-09T07:44:19.128Z,2835
2022-10-09T07:45:19.516Z,2880.83
2022-10-09T07:46:19.820Z,2906.67
2022-10-09T07:47:19.721Z,2933.33
2022-10-09T07:48:20.079Z,2955
2022-10-09T07:49:20.282Z,2980
2022-10-09T07:50:19.810Z,2988.33
2022-10-09T07:51:19.093Z,3004.17
2022-10-09T07:52:19.120Z,3005
2022-10-09T07:53:19.142Z,3000
2022-10-09T07:54:19.112Z,3012.5
2022-10-09T07:55:19.193Z,3005.83
2022-10-09T07:56:19.102Z,3026.67
2022-10-09T07:57:19.099Z,3088.33
2022-10-09T07:58:19.111Z,3129.17
2022-10-09T07:59:19.104Z,3146.67
2022-10-09T08:00:19.106Z,3170.83
2022-10-09T08:01:20.455Z,3207.5
2022-10-09T08:02:19.229Z,3265.83
2022-10-09T08:03:19.083Z,3515.83
2022-10-09T08:04:19.194Z,4389.17
2022-10-09T08:05:19.094Z,6213.33
2022-10-09T08:06:19.193Z,7820
2022-10-09T08:07:19.063Z,8620
2022-10-09T08:08:19.348Z,9072.5
2022-10-09T08:09:19.293Z,9339.17
2022-10-09T08:10:19.445Z,9587.5
2022-10-09T08:11:19.306Z,9753.33
2022-10-09T08:12:19.403Z,9962.5
2022-10-09T08:13:19.367Z,10065.83
2022-10-09T08:14:19.688Z,10330.83
2022-10-09T08:15:19.114Z,10433.33
2022-10-09T08:16:19.133Z,10545
2022-10-09T08:17:19.098Z,10661.67
2022-10-09T08:18:19.112Z,10531.67
2022-10-09T08:19:19.106Z,10570
2022-10-09T08:20:19.096Z,10839.17
2022-10-09T08:21:19.102Z,11066.67
2022-10-09T08:22:19.106Z,11062.5
2022-10-09T08:23:19.099Z,11176.67
2022-10-09T08:24:19.213Z,11202.5
2022-10-09T08:25:19.074Z,11473.33
2022-10-09T08:26:19.178Z,11867.5
2022-10-09T08:27:19.143Z,12070.83
2022-10-09T08:28:19.866Z,11905
2022-10-09T08:29:19.111Z,12139.17
2022-10-09T08:30:19.107Z,12178.33
2022-10-09T08:31:19.154Z,12156.67
2022-10-09T08:32:19.083Z,12240
2022-10-09T08:33:19.279Z,12356.67
2022-10-09T08:34:19.466Z,12305
2022-10-09T08:35:19.141Z,12344.17
2022-10-09T08:36:19.440Z,12762.5
2022-10-09T08:37:19.186Z,13176.67
2022-10-09T08:38:37.852Z,13490.83
2022-10-09T08:39:19.785Z,13616.67
2022-10-09T08:40:19.080Z,14084.17
2022-10-09T08:41:19.106Z,14296.67
2022-10-09T08:42:19.273Z,14043.33
2022-10-09T08:43:19.091Z,13373.33
2022-10-09T08:44:19.166Z,12560
2022-10-09T08:45:19.095Z,12204.17
2022-10-09T08:46:20.845Z,12137.5
2022-10-09T08:47:19.089Z,12231.67
2022-10-09T08:48:19.270Z,12208.33
2022-10-09T08:49:19.101Z,12280
2022-10-09T08:50:19.114Z,12416.67
2022-10-09T08:51:19.203Z,12535
2022-10-09T08:52:19.078Z,12100
2022-10-09T08:53:19.168Z,12856.67
2022-10-09T08:54:19.102Z,12945.83
2022-10-09T08:55:19.079Z,13015
2022-10-09T08:56:19.365Z,13145
2022-10-09T08:57:19.098Z,13304.17
2022-10-09T08:58:19.092Z,13270.83
2022-10-09T08:59:19.119Z,13287.5
2022-10-09T09:00:19.121Z,13277.5
2022-10-09T09:01:19.130Z,13170
2022-10-09T09:02:19.172Z,13242.5
2022-10-09T09:03:19.126Z,13284.17
2022-10-09T09:04:19.093Z,13290
2022-10-09T09:05:19.111Z,13171.67
2022-10-09T09:06:19.116Z,13215
2022-10-09T09:07:19.098Z,13260.83
2022-10-09T09:08:19.106Z,12995
2022-10-09T09:09:19.098Z,13155
2022-10-09T09:10:19.115Z,13034.17
2022-10-09T09:11:21.555Z,12853.33
2022-10-09T09:12:19.165Z,13465.83
2022-10-09T09:13:19.101Z,13646.67
2022-10-09T09:14:19.088Z,13670
2022-10-09T09:15:19.098Z,13793.33
2022-10-09T09:16:19.176Z,14169.17
2022-10-09T09:17:19.095Z,14346.67
2022-10-09T09:18:19.090Z,14379.17
2022-10-09T09:19:19.127Z,14494.17
2022-10-09T09:20:19.112Z,14473.33
2022-10-09T09:21:19.106Z,14515
2022-10-09T09:22:19.093Z,14608.33
2022-10-09T09:23:19.194Z,14621.67
2022-10-09T09:24:19.204Z,14635.83
2022-10-09T09:25:19.090Z,14598.33
2022-10-09T09:26:19.089Z,14748.33
2022-10-09T09:27:19.108Z,14867.5
2022-10-09T09:28:19.138Z,14970.83
2022-10-09T09:29:19.120Z,15049.17
2022-10-09T09:30:19.100Z,15059.17
2022-10-09T09:31:19.171Z,15080
2022-10-09T09:32:19.168Z,15052.5
2022-10-09T09:33:19.230Z,14923.33
2022-10-09T09:34:19.136Z,15032.5
2022-10-09T09:35:19.097Z,15079.17
2022-10-09T09:36:19.091Z,15210.83
2022-10-09T09:37:19.095Z,15161.67
2022-10-09T09:38:19.088Z,15125.83
2022-10-09T09:40:37.522Z,14915.83
2022-10-09T09:41:19.095Z,15027.5
2022-10-09T09:42:19.082Z,15188.33
2022-10-09T09:43:19.111Z,15445
2022-10-09T09:44:19.094Z,15581.67
2022-10-09T09:45:19.098Z,15706.67
2022-10-09T09:46:19.145Z,15804.17
2022-10-09T09:47:19.112Z,15851.67
2022-10-09T09:48:19.093Z,15943.33
2022-10-09T09:49:19.097Z,15942.5
2022-10-09T09:50:42.633Z,15915.83
2022-10-09T09:51:28.303Z,15976.67
2022-10-09T09:52:19.095Z,16055.83
2022-10-09T09:53:19.137Z,16132.5
2022-10-09T09:54:19.123Z,16315.83
2022-10-09T09:55:19.113Z,16406.67
2022-10-09T09:56:19.113Z,16385
2022-10-09T09:57:21.921Z,16395
2022-10-09T09:58:19.134Z,16501.67
2022-10-09T09:59:19.088Z,16450
2022-10-09T10:00:19.133Z,16530
2022-10-09T10:01:19.181Z,16556.67
2022-10-09T10:02:19.165Z,16545
2022-10-09T10:03:19.089Z,16526.67
2022-10-09T10:04:19.105Z,16502.5
2022-10-09T10:05:19.099Z,16517.5
2022-10-09T10:06:19.113Z,16422.5
2022-10-09T10:07:19.203Z,16493.33
2022-10-09T10:08:19.066Z,16481.67
2022-10-09T10:09:19.182Z,16494.17
2022-10-09T10:10:24.160Z,16476.67
2022-10-09T10:11:19.085Z,16483.33
2022-10-09T10:12:19.093Z,16475
2022-10-09T10:13:19.139Z,16534.17
2022-10-09T10:14:19.572Z,16517.5
2022-10-09T10:15:19.090Z,16535.83
2022-10-09T10:16:19.398Z,16560.83
2022-10-09T10:17:19.109Z,16490.83
2022-10-09T10:18:19.093Z,16511.67
2022-10-09T10:19:19.092Z,16551.67
2022-10-09T10:20:19.262Z,16508.33
2022-10-09T10:21:19.105Z,16568.33
2022-10-09T10:22:19.115Z,16531.67
2022-10-09T10:23:19.087Z,16590
2022-10-09T10:24:19.091Z,16578.33
2022-10-09T10:25:19.096Z,16613.33
2022-10-09T10:26:19.104Z,16494.17
2022-10-09T10:27:19.120Z,16315.83
2022-10-09T10:28:19.139Z,16351.67
2022-10-09T10:29:19.134Z,16438.33
2022-10-09T10:30:19.100Z,16290
2022-10-09T10:31:19.155Z,16439.17
2022-10-09T10:32:19.089Z,16437.5
2022-10-09T10:33:19.119Z,16560
2022-10-09T10:34:19.091Z,16681.67
2022-10-09T10:35:19.116Z,16713.33
2022-10-09T10:36:19.087Z,16661.67
2022-10-09T10:37:19.091Z,16505.83
2022-10-09T10:38:19.086Z,16501.67
2022-10-09T10:39:19.122Z,16532.5
2022-10-09T10:40:19.123Z,16567.5
2022-10-09T10:41:19.227Z,16600
2022-10-09T10:42:19.090Z,16601.67
2022-10-09T10:43:19.092Z,16651.67
2022-10-09T10:44:19.090Z,16635.83
2022-10-09T10:45:19.089Z,16658.33
2022-10-09T10:46:19.130Z,16568.33
2022-10-09T10:47:19.099Z,16667.5
2022-10-09T10:48:19.089Z,16745
2022-10-09T10:49:19.092Z,16746.67
2022-10-09T10:50:19.108Z,16695.83
2022-10-09T10:51:19.118Z,16768.33
2022-10-09T10:52:19.089Z,16804.17
2022-10-09T10:53:19.102Z,16767.5
2022-10-09T10:54:19.220Z,16730.83
2022-10-09T10:55:19.099Z,16735
2022-10-09T10:56:19.119Z,16708.33
2022-10-09T10:57:19.125Z,16759.17
2022-10-09T10:58:19.072Z,16795.83
2022-10-09T10:59:19.126Z,16765.83
2022-10-09T11:00:19.107Z,16783.33
2022-10-09T11:01:19.206Z,16800
2022-10-09T11:02:19.098Z,16853.33
2022-10-09T11:03:19.298Z,16842.5
2022-10-09T11:04:19.083Z,16864.17
2022-10-09T11:05:19.087Z,16835
2022-10-09T11:06:19.095Z,16863.33
2022-10-09T11:07:19.107Z,16845.83
2022-10-09T11:08:19.087Z,16912.5
2022-10-09T11:09:19.104Z,16902.5
2022-10-09T11:10:19.184Z,16851.67
2022-10-09T11:11:19.122Z,16859.17
2022-10-09T11:12:36.314Z,16830.83
2022-10-09T11:13:19.571Z,16802.5
2022-10-09T11:14:20.631Z,16807.5
2022-10-09T11:15:19.768Z,16715.83
2022-10-09T11:16:19.973Z,16695
2022-10-09T11:17:20.185Z,16704.17
2022-10-09T11:18:20.395Z,16682.5
2022-10-09T11:19:19.101Z,16687.5
2022-10-09T11:20:19.102Z,16604.17
2022-10-09T11:21:19.113Z,16633.33
2022-10-09T11:22:19.100Z,16670
2022-10-09T11:23:19.115Z,16641.67
2022-10-09T11:24:19.191Z,16664.17
2022-10-09T11:25:19.088Z,16654.17
2022-10-09T11:26:19.095Z,16658.33
2022-10-09T11:27:19.110Z,16655
2022-10-09T11:28:19.100Z,16699.17
2022-10-09T11:29:19.095Z,16677.5
2022-10-09T11:30:19.187Z,16657.5
2022-10-09T11:31:19.132Z,16693.33
2022-10-09T11:32:19.091Z,16683.33
2022-10-09T11:33:19.111Z,16656.67
2022-10-09T11:34:19.103Z,16669.17
2022-10-09T11:35:19.089Z,16650
2022-10-09T11:36:19.100Z,16690.83
2022-10-09T11:37:19.167Z,16745.83
2022-10-09T11:38:19.096Z,16800
2022-10-09T11:39:19.232Z,16833.33
2022-10-09T11:40:19.081Z,16810.83
2022-10-09T11:41:19.307Z,16798.33
2022-10-09T11:42:19.070Z,16760.83
2022-10-09T11:43:19.195Z,16804.17
2022-10-09T11:44:19.077Z,16801.67
2022-10-09T11:45:19.121Z,16837.5
2022-10-09T11:46:19.181Z,16944.17
2022-10-09T11:47:19.068Z,16972.5
2022-10-09T11:48:19.310Z,17060.83
2022-10-09T11:49:19.066Z,17193.33
2022-10-09T11:50:19.270Z,17267.5
2022-10-09T11:51:19.452Z,17337.5
2022-10-09T11:52:19.259Z,17313.33
2022-10-09T11:53:19.507Z,17331.67
2022-10-09T11:54:19.066Z,17359.17
2022-10-09T11:55:19.379Z,17470.83
2022-10-09T11:56:19.678Z,17633.33
2022-10-09T11:57:20.178Z,17672.5
2022-10-09T11:58:19.084Z,17721.67
2022-10-09T11:59:19.118Z,17900
2022-10-09T12:00:19.327Z,17938.33
2022-10-09T12:01:19.553Z,17942.5
2022-10-09T12:02:19.096Z,18007.5
2022-10-09T12:03:19.110Z,18274.17
2022-10-09T12:04:27.718Z,18393.33
2022-10-09T12:05:19.438Z,18460.83
2022-10-09T12:06:19.118Z,18721.67
2022-10-09T12:07:19.121Z,19039.17
2022-10-09T12:08:19.478Z,19357.5
2022-10-09T12:09:19.092Z,19765.83
2022-10-09T12:10:19.095Z,20093.33
2022-10-09T12:11:19.097Z,20352.5
2022-10-09T12:12:19.098Z,20927.5
2022-10-09T12:13:19.096Z,21473.33
2022-10-09T12:14:20.285Z,21875.83
2022-10-09T12:15:19.117Z,22425
2022-10-09T12:16:19.139Z,22980
2022-10-09T12:17:19.107Z,23557.5
2022-10-09T12:18:19.099Z,24170
2022-10-09T12:19:19.100Z,24764.17
2022-10-09T12:20:19.115Z,25298.33
2022-10-09T12:21:19.082Z,25875.83
2022-10-09T12:22:19.126Z,26685.83
2022-10-09T12:23:26.525Z,27357.5
2022-10-09T12:24:19.104Z,28025
2022-10-09T12:25:19.098Z,28502.5
2022-10-09T12:26:19.112Z,29065
2022-10-09T12:27:19.140Z,29387.5
2022-10-09T12:28:19.176Z,29585
2022-10-09T12:29:19.115Z,29637.5
2022-10-09T12:30:19.189Z,29844.17
2022-10-09T12:31:19.191Z,29983.33
2022-10-09T12:32:19.136Z,30271.67
2022-10-09T12:33:19.095Z,30429.17
2022-10-09T12:34:19.099Z,30530
2022-10-09T12:35:19.099Z,30855
2022-10-09T12:36:19.083Z,31126.67
2022-10-09T12:37:19.106Z,31253.33
2022-10-09T12:38:19.116Z,31308.33
2022-10-09T12:39:19.103Z,31781.67
2022-10-09T12:40:19.110Z,31705
2022-10-09T12:41:20.350Z,31791.67
2022-10-09T12:42:19.133Z,31759.17
2022-10-09T12:43:19.096Z,31694.17
2022-10-09T12:44:19.101Z,31451.67
2022-10-09T12:45:19.093Z,31448.33
2022-10-09T12:46:19.132Z,31599.17
2022-10-09T12:47:19.106Z,31657.5
2022-10-09T12:48:19.097Z,31564.17
2022-10-09T12:49:19.094Z,31447.5
2022-10-09T12:50:19.101Z,31457.5
2022-10-09T12:51:19.100Z,31278.33
2022-10-09T12:52:19.108Z,31126.67
2022-10-09T12:53:19.208Z,27705.83
2022-10-09T12:54:19.092Z,18177.5
2022-10-09T12:55:19.088Z,6815.83
2022-10-09T12:56:19.097Z,4530
2022-10-09T12:57:20.941Z,3729.17
2022-10-09T12:58:19.102Z,3638.33
2022-10-09T12:59:19.119Z,3616.67
2022-10-09T13:00:19.104Z,3573.33
2022-10-09T13:01:19.220Z,3555.83
2022-10-09T13:02:19.278Z,3521.67
2022-10-09T13:03:19.096Z,3499.17
2022-10-09T13:04:19.166Z,3478.33
2022-10-09T13:05:19.105Z,3406.67
2022-10-09T13:06:19.102Z,3405